Time;durP1;ratioP1;P1;durP2;ratioP2;P2;SDS_P1;SDS_P2;PMS_P1;PMS_P2;Temp;Humidity;BMP_temperature;BMP_pressure;BME280_temperature;BME280_humidity;BME280_pressure;Samples;Min_cycle;Max_cycle;Signal;HPM_P1;HPM_P2
2023/10/26 00:00:36;;;;;;;106.87;32.80;;;11.70;99.90;;;;;;5066778;28;20192;-81
2023/10/26 00:03:01;;;;;;;89.90;29.77;;;11.70;99.90;;;;;;5050044;28;20187;-81
2023/10/26 00:05:27;;;;;;;96.90;30.77;;;11.70;99.90;;;;;;5067670;28;20708;-81
2023/10/26 00:07:53;;;;;;;101.77;29.70;;;11.70;99.90;;;;;;5069247;28;20192;-81
2023/10/26 00:10:18;;;;;;;82.57;26.70;;;11.70;99.90;;;;;;5069284;28;20281;-81
2023/10/26 00:12:45;;;;;;;78.97;28.30;;;11.70;99.90;;;;;;5065064;28;20225;-81
2023/10/26 00:15:11;;;;;;;98.27;29.47;;;11.70;99.90;;;;;;5064144;28;20243;-81
2023/10/26 00:17:37;;;;;;;63.50;23.10;;;11.70;99.90;;;;;;5067659;28;20471;-81
2023/10/26 00:20:05;;;;;;;67.63;23.00;;;11.70;99.90;;;;;;5055000;28;20815;-81
2023/10/26 00:22:30;;;;;;;58.77;22.20;;;11.70;99.90;;;;;;5069686;28;20428;-81
2023/10/26 00:24:56;;;;;;;55.67;21.90;;;11.60;99.90;;;;;;5053507;28;20453;-81
2023/10/26 00:27:21;;;;;;;62.07;22.00;;;11.60;99.90;;;;;;5072799;28;20204;-81
2023/10/26 00:29:47;;;;;;;59.87;22.77;;;11.60;99.90;;;;;;5054666;28;20323;-81
2023/10/26 00:32:12;;;;;;;80.50;28.10;;;11.60;99.90;;;;;;5066304;28;20190;-81
2023/10/26 00:34:38;;;;;;;81.43;29.60;;;11.50;99.90;;;;;;5052588;28;20201;-81
2023/10/26 00:37:03;;;;;;;100.73;33.17;;;11.50;99.90;;;;;;5050271;28;20710;-80
2023/10/26 00:39:29;;;;;;;110.17;36.50;;;11.50;99.90;;;;;;5052512;28;20198;-81
2023/10/26 00:41:55;;;;;;;106.10;35.13;;;11.50;99.90;;;;;;5072185;28;20266;-81
2023/10/26 00:44:22;;;;;;;115.47;37.10;;;11.50;99.90;;;;;;5070271;28;20185;-81
2023/10/26 00:46:53;;;;;;;119.57;37.17;;;11.40;99.90;;;;;;5068162;28;20483;-81
2023/10/26 00:49:19;;;;;;;127.93;38.77;;;11.40;99.90;;;;;;5065659;28;20516;-82
2023/10/26 00:51:47;;;;;;;128.53;39.97;;;11.40;99.90;;;;;;5065262;28;20452;-82
2023/10/26 00:54:14;;;;;;;126.47;37.33;;;11.40;99.90;;;;;;5068708;28;20514;-81
2023/10/26 00:56:40;;;;;;;131.23;38.13;;;11.40;99.90;;;;;;5070009;28;20471;-81
2023/10/26 00:59:05;;;;;;;120.97;39.77;;;11.40;99.90;;;;;;5073655;28;20477;-81
2023/10/26 01:01:32;;;;;;;122.73;39.50;;;11.40;99.90;;;;;;5066854;28;20189;-81
2023/10/26 01:03:59;;;;;;;111.67;37.00;;;11.40;99.90;;;;;;5065736;28;20199;-81
2023/10/26 01:06:25;;;;;;;116.37;37.60;;;11.40;99.90;;;;;;5056873;28;20460;-81
2023/10/26 01:08:50;;;;;;;112.20;40.17;;;11.40;99.90;;;;;;5069165;28;20451;-80
2023/10/26 01:11:16;;;;;;;112.60;38.60;;;11.40;99.90;;;;;;5077477;28;20197;-80
2023/10/26 01:13:42;;;;;;;112.33;40.27;;;11.40;99.90;;;;;;5072009;28;20225;-81
2023/10/26 01:16:09;;;;;;;125.13;41.80;;;11.40;99.90;;;;;;5067377;28;20485;-81
2023/10/26 01:18:34;;;;;;;124.63;41.40;;;11.40;99.90;;;;;;5070826;28;20927;-81
2023/10/26 01:21:00;;;;;;;118.70;42.30;;;11.40;99.90;;;;;;5054551;28;20431;-80
2023/10/26 01:23:25;;;;;;;105.07;38.43;;;11.40;99.60;;;;;;5065107;28;20666;-81
2023/10/26 01:25:53;;;;;;;123.67;40.17;;;11.40;98.80;;;;;;5059365;28;20209;-81
2023/10/26 01:28:19;;;;;;;118.03;41.20;;;11.40;98.10;;;;;;5062281;28;20197;-81
2023/10/26 01:30:44;;;;;;;112.77;39.80;;;11.40;98.60;;;;;;5058197;28;20448;-80
2023/10/26 01:33:10;;;;;;;104.70;41.83;;;11.40;97.40;;;;;;5064962;28;20224;-80
2023/10/26 01:35:41;;;;;;;106.57;35.77;;;11.30;94.80;;;;;;5049465;28;20213;-81
2023/10/26 01:38:06;;;;;;;112.63;39.23;;;11.30;96.20;;;;;;5062412;28;20209;-81
2023/10/26 01:40:33;;;;;;;106.10;38.70;;;11.30;96.30;;;;;;5060970;28;20465;-80
2023/10/26 01:42:58;;;;;;;99.73;38.07;;;11.30;96.40;;;;;;5061551;28;20190;-81
2023/10/26 01:45:24;;;;;;;98.97;34.53;;;11.30;94.70;;;;;;5056422;28;20502;-80
2023/10/26 01:47:49;;;;;;;104.00;37.27;;;11.30;95.60;;;;;;5063718;28;20185;-81
2023/10/26 01:50:15;;;;;;;107.20;37.30;;;11.40;96.40;;;;;;5064286;28;20189;-80
2023/10/26 01:52:42;;;;;;;100.83;37.40;;;11.40;96.60;;;;;;5062607;28;20216;-80
2023/10/26 01:55:08;;;;;;;102.60;36.30;;;11.40;95.30;;;;;;5061398;28;20452;-81
2023/10/26 01:57:33;;;;;;;103.60;39.60;;;11.40;96.30;;;;;;5044927;28;20482;-81
2023/10/26 01:59:59;;;;;;;100.73;35.50;;;11.40;96.50;;;;;;5069168;28;20705;-81
2023/10/26 02:02:24;;;;;;;96.73;36.90;;;11.50;96.50;;;;;;5054119;28;20190;-80
2023/10/26 02:04:50;;;;;;;93.47;34.87;;;11.50;95.20;;;;;;5068370;28;20189;-81
2023/10/26 02:07:15;;;;;;;92.73;34.70;;;11.50;94.10;;;;;;5064679;28;20213;-80
2023/10/26 02:09:41;;;;;;;80.13;32.70;;;11.50;94.40;;;;;;5070504;28;20293;-81
2023/10/26 02:12:07;;;;;;;86.80;32.33;;;11.50;93.60;;;;;;5047644;28;20281;-81
2023/10/26 02:14:32;;;;;;;87.27;34.27;;;11.40;91.60;;;;;;5055157;28;20614;-80
2023/10/26 02:16:58;;;;;;;81.97;32.27;;;11.40;91.00;;;;;;5066067;28;20209;-81
2023/10/26 02:19:23;;;;;;;82.07;32.50;;;11.50;92.40;;;;;;5069104;28;20197;-80
2023/10/26 02:21:49;;;;;;;84.60;33.70;;;11.50;91.20;;;;;;5074303;28;20189;-81
2023/10/26 02:24:14;;;;;;;83.93;32.80;;;11.40;89.60;;;;;;5065949;28;20196;-80
2023/10/26 02:26:40;;;;;;;82.27;32.87;;;11.50;90.30;;;;;;5067753;28;20209;-80
2023/10/26 02:29:05;;;;;;;78.57;31.63;;;11.50;89.30;;;;;;5062491;28;20209;-80
2023/10/26 02:31:31;;;;;;;76.50;33.67;;;11.40;83.90;;;;;;5059341;28;20185;-80
2023/10/26 02:33:56;;;;;;;83.63;32.50;;;11.50;86.20;;;;;;5065978;28;20243;-80
2023/10/26 02:36:22;;;;;;;72.83;32.17;;;11.50;86.80;;;;;;5071902;28;20213;-81
2023/10/26 02:38:47;;;;;;;78.30;31.20;;;11.50;86.30;;;;;;5067322;28;20520;-80
2023/10/26 02:41:13;;;;;;;73.63;33.47;;;11.50;84.50;;;;;;5055170;28;20739;-81
2023/10/26 02:43:38;;;;;;;79.80;31.60;;;11.50;80.30;;;;;;5067847;28;20185;-80
2023/10/26 02:46:04;;;;;;;68.13;30.20;;;11.50;81.30;;;;;;5063477;28;23107;-80
2023/10/26 02:48:30;;;;;;;82.90;32.60;;;11.50;83.90;;;;;;5065134;28;20185;-80
2023/10/26 02:50:56;;;;;;;64.00;28.30;;;11.50;84.20;;;;;;5062578;28;20447;-80
2023/10/26 02:53:21;;;;;;;70.90;29.60;;;11.40;71.30;;;;;;5059475;28;20271;-80
2023/10/26 02:55:47;;;;;;;70.73;30.47;;;11.40;70.60;;;;;;5061928;28;20217;-80
2023/10/26 02:58:12;;;;;;;68.90;30.40;;;11.40;73.60;;;;;;5060827;28;20206;-81
2023/10/26 03:00:38;;;;;;;69.37;29.43;;;11.40;70.80;;;;;;5064046;28;20194;-80
2023/10/26 03:03:03;;;;;;;71.83;31.20;;;11.50;73.00;;;;;;5060270;28;20178;-80
2023/10/26 03:05:29;;;;;;;72.80;31.97;;;11.50;71.50;;;;;;5059651;28;20209;-80
2023/10/26 03:07:55;;;;;;;68.57;29.90;;;11.50;75.50;;;;;;5062541;28;20249;-80
2023/10/26 03:10:22;;;;;;;66.90;29.40;;;11.50;74.50;;;;;;5042685;28;20538;-80
2023/10/26 03:12:48;;;;;;;69.43;28.67;;;11.50;71.70;;;;;;5058444;28;20205;-80
2023/10/26 03:15:14;;;;;;;62.87;28.30;;;11.50;61.90;;;;;;5061333;28;20443;-80
2023/10/26 03:17:40;;;;;;;66.57;28.57;;;11.50;62.10;;;;;;5062097;28;20516;-80
2023/10/26 03:20:06;;;;;;;63.13;26.60;;;11.40;56.80;;;;;;5060799;28;20186;-80
2023/10/26 03:22:34;;;;;;;59.70;28.17;;;11.40;54.90;;;;;;5058436;28;20183;-79
2023/10/26 03:25:00;;;;;;;56.23;25.63;;;11.40;56.00;;;;;;5059754;28;20444;-80
2023/10/26 03:27:26;;;;;;;55.80;25.27;;;11.40;56.00;;;;;;5050459;28;20444;-80
2023/10/26 03:29:54;;;;;;;51.60;24.87;;;11.40;53.90;;;;;;5061563;28;20447;-80
2023/10/26 03:32:19;;;;;;;53.30;22.93;;;11.40;51.20;;;;;;5058027;28;20182;-81
2023/10/26 03:34:45;;;;;;;51.70;24.37;;;11.40;52.50;;;;;;5065607;28;20443;-81
2023/10/26 03:37:10;;;;;;;51.93;23.60;;;11.40;51.70;;;;;;5060130;28;20209;-80
2023/10/26 03:39:36;;;;;;;47.10;22.60;;;11.50;52.40;;;;;;5058991;28;20216;-80
2023/10/26 03:42:02;;;;;;;43.50;22.27;;;11.40;46.20;;;;;;5059820;28;20281;-80
2023/10/26 03:44:28;;;;;;;46.20;22.70;;;11.40;40.60;;;;;;5059014;28;20234;-80
2023/10/26 03:46:53;;;;;;;43.63;21.60;;;11.40;39.00;;;;;;5037930;28;20203;-80
2023/10/26 03:49:20;;;;;;;40.50;23.30;;;11.30;32.90;;;;;;5058554;28;20539;-79
2023/10/26 03:51:49;;;;;;;46.23;22.80;;;11.30;29.70;;;;;;5058051;28;20193;-80
2023/10/26 03:54:15;;;;;;;41.10;21.27;;;11.20;27.60;;;;;;5061256;28;20478;-80
2023/10/26 03:56:41;;;;;;;45.77;22.53;;;11.10;29.00;;;;;;5061572;28;20472;-80
2023/10/26 03:59:06;;;;;;;46.73;22.40;;;11.10;30.20;;;;;;5063569;28;20190;-80
2023/10/26 04:01:32;;;;;;;48.20;24.93;;;11.10;33.70;;;;;;5052308;28;20444;-80
2023/10/26 04:03:57;;;;;;;47.30;22.60;;;11.10;37.80;;;;;;5064666;28;20658;-80
2023/10/26 04:06:23;;;;;;;48.63;23.70;;;11.10;40.20;;;;;;5065074;28;20210;-80
2023/10/26 04:08:49;;;;;;;44.93;22.53;;;11.10;43.80;;;;;;5064361;28;20189;-80
2023/10/26 04:11:17;;;;;;;41.50;22.97;;;11.00;42.80;;;;;;5046549;28;20201;-80
2023/10/26 04:13:44;;;;;;;50.53;23.97;;;11.10;46.50;;;;;;5060764;28;20193;-81
2023/10/26 04:16:09;;;;;;;47.33;23.90;;;11.10;46.60;;;;;;5065869;28;20543;-80
2023/10/26 04:18:35;;;;;;;41.83;21.87;;;11.10;49.70;;;;;;5049991;28;20486;-80
2023/10/26 04:21:00;;;;;;;42.10;20.90;;;11.10;49.30;;;;;;5064441;28;20190;-80
2023/10/26 04:23:27;;;;;;;48.43;23.90;;;11.10;49.80;;;;;;5066087;28;20288;-80
2023/10/26 04:25:53;;;;;;;48.60;22.73;;;11.10;48.40;;;;;;5062883;28;20216;-80
2023/10/26 04:28:18;;;;;;;44.00;24.03;;;11.10;47.00;;;;;;5064244;28;20433;-80
2023/10/26 04:30:45;;;;;;;47.43;23.40;;;11.10;46.90;;;;;;5060473;28;20451;-80
2023/10/26 04:33:11;;;;;;;41.10;21.27;;;11.10;45.80;;;;;;5064076;28;20181;-80
2023/10/26 04:35:40;;;;;;;41.10;21.10;;;11.10;41.30;;;;;;5064912;28;20472;-80
2023/10/26 04:38:08;;;;;;;36.80;20.03;;;11.00;35.20;;;;;;5062702;28;20296;-80
2023/10/26 04:40:34;;;;;;;37.40;20.50;;;10.90;33.10;;;;;;5039362;28;20474;-80
2023/10/26 04:42:59;;;;;;;42.63;20.87;;;10.90;32.80;;;;;;5065399;28;20942;-80
2023/10/26 04:45:25;;;;;;;42.93;20.77;;;10.90;35.50;;;;;;5059216;28;20616;-80
2023/10/26 04:47:50;;;;;;;41.00;22.80;;;10.80;38.00;;;;;;5064549;28;20243;-79
2023/10/26 04:50:16;;;;;;;43.07;21.13;;;10.80;44.90;;;;;;5064724;28;20218;-80
2023/10/26 04:52:41;;;;;;;47.53;23.43;;;10.90;52.30;;;;;;5062770;28;20193;-79
2023/10/26 04:55:07;;;;;;;42.30;20.80;;;10.90;56.30;;;;;;5064314;28;20227;-80
2023/10/26 04:57:33;;;;;;;40.60;20.60;;;10.90;59.10;;;;;;5059806;28;20217;-80
2023/10/26 04:59:59;;;;;;;38.20;21.17;;;10.90;57.20;;;;;;5044932;28;20187;-80
2023/10/26 05:02:24;;;;;;;35.47;20.50;;;10.90;55.80;;;;;;5062163;28;20796;-80
2023/10/26 05:04:50;;;;;;;43.23;21.67;;;10.90;54.30;;;;;;5060956;28;20193;-79
2023/10/26 05:07:15;;;;;;;40.63;19.63;;;10.90;55.40;;;;;;5064445;28;20259;-79
2023/10/26 05:09:41;;;;;;;40.93;21.43;;;10.90;56.80;;;;;;5062995;28;20189;-80
2023/10/26 05:12:07;;;;;;;42.57;21.00;;;10.90;59.30;;;;;;5044627;28;20207;-80
2023/10/26 05:14:32;;;;;;;39.23;22.13;;;10.90;59.50;;;;;;5062451;28;20182;-79
2023/10/26 05:16:58;;;;;;;42.80;22.53;;;11.00;58.50;;;;;;5061357;28;20236;-79
2023/10/26 05:19:23;;;;;;;38.00;23.50;;;10.90;57.20;;;;;;5063567;28;20182;-79
2023/10/26 05:21:49;;;;;;;44.07;23.13;;;10.90;54.40;;;;;;5062870;28;20175;-79
2023/10/26 05:24:14;;;;;;;44.67;23.90;;;10.90;53.10;;;;;;5059961;28;20186;-80
2023/10/26 05:26:40;;;;;;;40.97;21.90;;;10.90;49.90;;;;;;5058731;28;20216;-79
2023/10/26 05:29:05;;;;;;;43.60;22.97;;;10.80;48.30;;;;;;5061585;28;20189;-80
2023/10/26 05:31:31;;;;;;;38.40;20.80;;;10.80;47.80;;;;;;5059966;28;20205;-80
2023/10/26 05:33:56;;;;;;;39.40;20.73;;;10.80;42.40;;;;;;5062059;28;20560;-79
2023/10/26 05:36:22;;;;;;;38.93;21.40;;;10.70;39.90;;;;;;5058989;28;20233;-79
2023/10/26 05:38:49;;;;;;;41.80;21.43;;;10.70;36.80;;;;;;5061719;28;20208;-79
2023/10/26 05:41:15;;;;;;;39.10;21.87;;;10.60;33.30;;;;;;5063249;28;20467;-80
2023/10/26 05:43:40;;;;;;;38.90;21.37;;;10.50;29.40;;;;;;5061861;28;20452;-79
2023/10/26 05:46:06;;;;;;;41.30;22.40;;;10.40;29.30;;;;;;5058600;28;20285;-78
2023/10/26 05:48:32;;;;;;;46.53;22.90;;;10.40;30.50;;;;;;5057967;28;20206;-79
2023/10/26 05:50:59;;;;;;;42.10;22.13;;;10.30;33.00;;;;;;5066238;28;20565;-78
2023/10/26 05:53:24;;;;;;;40.70;21.83;;;10.30;34.30;;;;;;5057914;28;20475;-79
2023/10/26 05:55:57;;;;;;;38.70;20.90;;;10.20;34.80;;;;;;5061155;28;20498;-79
2023/10/26 05:58:23;;;;;;;39.03;20.63;;;10.20;34.20;;;;;;5061503;28;20228;-79
2023/10/26 06:00:48;;;;;;;39.80;21.07;;;10.10;34.90;;;;;;5058145;28;20432;-78
2023/10/26 06:03:14;;;;;;;35.67;19.73;;;10.10;35.40;;;;;;5062330;28;20182;-79
2023/10/26 06:05:39;;;;;;;42.63;22.10;;;10.10;35.90;;;;;;5059283;28;20204;-78
2023/10/26 06:08:05;;;;;;;36.30;20.80;;;10.00;35.40;;;;;;5059442;28;20190;-78
2023/10/26 06:10:30;;;;;;;37.37;20.73;;;10.00;35.60;;;;;;5063550;28;20212;-78
2023/10/26 06:12:56;;;;;;;36.33;20.20;;;10.00;35.80;;;;;;5063752;28;20189;-79
2023/10/26 06:15:22;;;;;;;38.37;19.50;;;9.90;36.60;;;;;;5064692;28;20724;-78
2023/10/26 06:17:48;;;;;;;34.07;19.67;;;9.90;39.80;;;;;;5048812;28;20217;-78
2023/10/26 06:20:14;;;;;;;37.90;20.03;;;10.00;48.10;;;;;;5061279;28;21000;-79
2023/10/26 06:22:39;;;;;;;42.40;23.47;;;10.00;51.20;;;;;;5065895;28;20185;-79
2023/10/26 06:25:05;;;;;;;39.93;21.27;;;10.10;50.00;;;;;;5051847;28;20435;-78
2023/10/26 06:27:31;;;;;;;44.73;22.87;;;10.10;48.40;;;;;;5056096;28;20194;-78
2023/10/26 06:29:57;;;;;;;38.43;21.27;;;10.20;46.30;;;;;;5059495;28;20194;-78
2023/10/26 06:32:23;;;;;;;38.10;19.67;;;10.20;42.60;;;;;;5055165;28;20185;-78
2023/10/26 06:34:50;;;;;;;37.33;20.30;;;10.20;33.00;;;;;;5058501;28;21001;-78
2023/10/26 06:37:16;;;;;;;43.00;21.20;;;10.20;28.40;;;;;;5054387;28;20209;-78
2023/10/26 06:39:41;;;;;;;38.67;20.70;;;10.20;22.00;;;;;;5038603;28;20486;-78
2023/10/26 06:42:07;;;;;;;37.10;19.30;;;10.30;21.00;;;;;;5061047;28;21123;-78
2023/10/26 06:44:33;;;;;;;43.90;21.33;;;10.40;21.30;;;;;;5058312;28;20192;-77
2023/10/26 06:46:58;;;;;;;66.30;26.10;;;10.50;18.20;;;;;;5055683;28;20205;-78
2023/10/26 06:49:24;;;;;;;40.57;22.33;;;10.70;14.60;;;;;;5055778;28;20246;-78
2023/10/26 06:51:49;;;;;;;34.60;20.87;;;10.80;13.40;;;;;;5051741;28;20185;-78
2023/10/26 06:54:15;;;;;;;118.23;31.00;;;11.00;7.60;;;;;;5058400;28;20190;-79
2023/10/26 06:56:42;;;;;;;122.67;27.20;;;11.20;1.00;;;;;;5042875;28;20213;-78
2023/10/26 06:59:07;;;;;;;59.43;23.57;;;11.30;1.00;;;;;;5058210;28;20436;-78
2023/10/26 07:01:33;;;;;;;38.67;20.83;;;11.50;1.00;;;;;;5057038;28;20495;-78
2023/10/26 07:03:59;;;;;;;51.73;22.43;;;11.80;1.00;;;;;;5054059;28;20261;-78
2023/10/26 07:06:25;;;;;;;40.93;20.37;;;12.20;1.00;;;;;;5058540;28;20459;-79
2023/10/26 07:08:51;;;;;;;35.60;22.17;;;13.30;1.00;;;;;;5056867;28;20442;-79
2023/10/26 07:11:16;;;;;;;36.50;20.07;;;14.70;1.00;;;;;;5061674;28;20209;-79
2023/10/26 07:13:43;;;;;;;28.40;19.40;;;16.00;99.90;;;;;;5057727;28;20185;-79
2023/10/26 07:16:09;;;;;;;27.13;20.47;;;17.00;1.00;;;;;;5055472;28;21127;-79
2023/10/26 07:18:35;;;;;;;29.57;20.93;;;17.60;1.00;;;;;;5058124;28;20486;-78
2023/10/26 07:21:05;;;;;;;23.80;18.40;;;18.20;99.90;;;;;;5059330;28;20188;-79
2023/10/26 07:23:32;;;;;;;22.50;18.90;;;19.20;99.90;;;;;;5056735;28;20178;-79
2023/10/26 07:25:58;;;;;;;22.73;17.47;;;20.00;1.00;;;;;;5040304;28;21173;-79
2023/10/26 07:28:23;;;;;;;23.43;19.73;;;20.60;99.90;;;;;;5061396;28;20459;-79
2023/10/26 07:30:52;;;;;;;29.90;21.60;;;21.20;1.00;;;;;;5061836;28;20177;-79
2023/10/26 07:33:19;;;;;;;24.50;21.40;;;22.00;1.00;;;;;;5060833;28;20207;-79
2023/10/26 07:35:56;;;;;;;29.30;22.30;;;22.80;1.00;;;;;;5059154;28;20470;-80
2023/10/26 07:38:25;;;;;;;24.97;21.33;;;23.50;1.00;;;;;;5043974;28;20471;-79
2023/10/26 07:40:53;;;;;;;24.63;22.03;;;23.90;1.00;;;;;;5068057;28;20431;-79
2023/10/26 07:43:18;;;;;;;23.90;21.50;;;23.90;1.00;;;;;;5063295;28;20516;-80
2023/10/26 07:45:46;;;;;;;23.57;21.10;;;23.90;1.00;;;;;;5059839;28;20620;-80
2023/10/26 07:48:12;;;;;;;24.40;21.80;;;24.00;1.00;;;;;;5043823;28;20241;-80
2023/10/26 07:50:37;;;;;;;22.67;20.47;;;23.90;99.90;;;;;;5063551;28;20493;-80
2023/10/26 07:53:05;;;;;;;25.13;21.97;;;24.60;99.90;;;;;;5058420;28;20185;-79
2023/10/26 07:55:31;;;;;;;23.50;21.07;;;25.60;99.90;;;;;;5064529;28;20327;-80
2023/10/26 07:57:56;;;;;;;22.83;20.43;;;26.40;99.90;;;;;;5065976;28;21050;-80
2023/10/26 08:00:22;;;;;;;23.30;21.03;;;26.80;99.90;;;;;;5062571;28;20184;-79
2023/10/26 08:02:47;;;;;;;22.50;20.30;;;27.50;99.90;;;;;;5060028;28;20193;-80
2023/10/26 08:05:15;;;;;;;22.60;20.30;;;;;;;;;;5058615;28;20193;-80
2023/10/26 08:07:41;;;;;;;22.53;20.30;;;28.00;99.90;;;;;;5066215;28;20200;-80
2023/10/26 08:10:07;;;;;;;19.73;17.90;;;28.50;99.90;;;;;;5064611;28;20438;-79
2023/10/26 08:12:32;;;;;;;20.53;18.37;;;28.80;99.90;;;;;;5061865;28;20278;-80
2023/10/26 08:14:58;;;;;;;21.07;19.00;;;29.40;99.90;;;;;;5068731;28;20445;-80
2023/10/26 08:17:27;;;;;;;18.27;16.57;;;29.90;99.90;;;;;;5064815;28;20227;-80
2023/10/26 08:19:53;;;;;;;65.43;22.20;;;30.30;99.90;;;;;;5060814;28;20176;-80
2023/10/26 08:22:20;;;;;;;24.30;18.97;;;30.90;99.90;;;;;;5065822;28;20431;-80
2023/10/26 08:24:47;;;;;;;25.63;18.60;;;31.20;99.90;;;;;;5068691;28;20435;-80
2023/10/26 08:27:12;;;;;;;52.33;24.63;;;31.50;99.90;;;;;;5068977;28;20455;-80
2023/10/26 08:29:38;;;;;;;21.60;18.27;;;31.80;99.90;;;;;;5063670;28;20434;-81
2023/10/26 08:32:04;;;;;;;17.40;15.70;;;32.40;99.90;;;;;;5066703;28;20220;-80
2023/10/26 08:34:29;;;;;;;17.93;16.33;;;32.50;99.90;;;;;;5064929;28;20197;-80
2023/10/26 08:36:55;;;;;;;30.33;17.80;;;32.60;99.90;;;;;;5065579;28;20232;-80
2023/10/26 08:39:20;;;;;;;18.40;16.60;;;32.30;99.90;;;;;;5065506;28;20240;-80
2023/10/26 08:41:52;;;;;;;18.57;16.87;;;32.40;99.90;;;;;;5054331;28;20281;-80
2023/10/26 08:44:18;;;;;;;31.47;18.30;;;32.20;99.90;;;;;;5069515;28;20235;-79
2023/10/26 08:46:48;;;;;;;24.53;16.30;;;31.90;99.90;;;;;;5062650;28;20519;-79
2023/10/26 08:49:15;;;;;;;18.07;16.47;;;31.80;99.90;;;;;;5063514;28;20191;-80
2023/10/26 08:51:41;;;;;;;18.23;16.60;;;31.30;99.90;;;;;;5063011;28;20461;-79
2023/10/26 08:54:06;;;;;;;16.90;13.93;;;31.30;99.90;;;;;;5060766;28;20524;-79
2023/10/26 08:56:32;;;;;;;16.67;15.17;;;31.70;99.90;;;;;;5060572;28;20232;-79
2023/10/26 08:58:58;;;;;;;13.67;12.40;;;32.20;99.90;;;;;;5060744;28;20207;-80
2023/10/26 09:01:24;;;;;;;15.13;13.53;;;32.40;99.90;;;;;;5058321;28;20549;-79
2023/10/26 09:03:49;;;;;;;15.80;14.20;;;33.20;99.90;;;;;;5063131;28;20189;-79
2023/10/26 09:06:15;;;;;;;15.20;13.90;;;33.70;99.90;;;;;;5060307;28;20447;-79
2023/10/26 09:08:41;;;;;;;15.30;13.80;;;33.10;99.90;;;;;;5067907;28;20200;-79
2023/10/26 09:11:21;;;;;;;12.90;11.77;;;31.40;99.90;;;;;;5065255;28;20222;-79
2023/10/26 09:13:47;;;;;;;17.73;14.97;;;29.60;99.90;;;;;;5064789;28;20431;-79
2023/10/26 09:16:12;;;;;;;16.97;15.27;;;28.40;99.90;;;;;;5064751;28;20458;-78
2023/10/26 09:18:38;;;;;;;18.27;16.50;;;27.50;99.90;;;;;;5066707;28;21023;-78
2023/10/26 09:21:06;;;;;;;18.30;16.60;;;26.40;99.90;;;;;;5058470;28;20178;-78
2023/10/26 09:23:33;;;;;;;23.57;18.93;;;25.50;99.90;;;;;;5044207;28;20444;-78
2023/10/26 09:26:02;;;;;;;21.23;19.07;;;24.60;99.90;;;;;;5062992;28;21044;-78
2023/10/26 09:28:28;;;;;;;22.20;20.00;;;23.80;99.90;;;;;;5068483;28;20431;-78
2023/10/26 09:30:59;;;;;;;23.93;21.43;;;23.00;99.90;;;;;;5068747;28;20484;-78
2023/10/26 09:33:26;;;;;;;23.40;20.50;;;22.50;99.90;;;;;;5046234;28;20198;-79
2023/10/26 09:35:55;;;;;;;79.43;25.50;;;22.50;99.90;;;;;;5064840;28;20458;-78
2023/10/26 09:38:35;;;;;;;23.27;20.30;;;22.20;99.90;;;;;;5059105;28;20471;-78
2023/10/26 09:41:04;;;;;;;23.77;19.13;;;22.00;99.90;;;;;;5064456;28;21685;-78
2023/10/26 09:43:30;;;;;;;22.87;17.20;;;22.10;99.90;;;;;;5062354;28;20435;-78
2023/10/26 09:45:56;;;;;;;22.73;18.70;;;22.60;99.90;;;;;;5058660;28;20451;-78
2023/10/26 09:48:23;;;;;;;21.80;19.60;;;22.50;99.90;;;;;;5067719;28;20182;-78
2023/10/26 09:50:48;;;;;;;21.33;19.10;;;22.40;99.90;;;;;;5061887;28;20443;-78
2023/10/26 09:53:16;;;;;;;22.20;19.90;;;22.40;99.90;;;;;;5057816;28;20443;-78
2023/10/26 09:55:44;;;;;;;20.67;18.50;;;22.20;99.90;;;;;;5052532;28;23620;-78
2023/10/26 09:58:11;;;;;;;22.40;18.77;;;22.00;99.90;;;;;;5061233;28;21177;-78
2023/10/26 10:00:37;;;;;;;21.87;19.47;;;21.90;99.90;;;;;;5047004;28;20432;-78
2023/10/26 10:03:13;;;;;;;20.67;18.47;;;21.80;99.90;;;;;;5068404;28;20447;-78
2023/10/26 10:05:41;;;;;;;32.00;19.87;;;21.50;99.90;;;;;;5063113;28;20197;-78
2023/10/26 10:08:07;;;;;;;22.80;20.33;;;21.40;99.90;;;;;;5070968;28;20440;-78
2023/10/26 10:10:33;;;;;;;23.03;20.53;;;21.30;99.90;;;;;;5072288;28;20456;-78
2023/10/26 10:13:00;;;;;;;23.50;20.03;;;21.40;99.90;;;;;;5061356;28;20443;-79
2023/10/26 10:15:51;;;;;;;21.03;18.93;;;21.40;99.90;;;;;;5069610;28;20460;-78
2023/10/26 10:18:17;;;;;;;21.87;19.27;;;21.90;99.90;;;;;;5063423;28;20516;-79
2023/10/26 10:20:43;;;;;;;20.37;18.17;;;22.60;99.90;;;;;;5066721;28;20505;-79
2023/10/26 10:23:26;;;;;;;21.23;19.03;;;22.90;99.90;;;;;;5051062;28;20583;-78
2023/10/26 10:25:52;;;;;;;19.53;17.53;;;22.80;99.90;;;;;;5069135;28;20262;-78
2023/10/26 10:28:19;;;;;;;20.00;17.27;;;22.90;99.90;;;;;;5071210;28;20427;-78
2023/10/26 10:31:03;;;;;;;20.10;18.00;;;23.20;99.90;;;;;;5054145;28;20431;-78
2023/10/26 10:33:29;;;;;;;19.13;17.30;;;23.50;99.90;;;;;;5072461;28;20569;-78
2023/10/26 10:36:03;;;;;;;19.03;17.10;;;23.00;99.90;;;;;;5067231;28;20542;-78
2023/10/26 10:38:29;;;;;;;20.70;18.60;;;22.50;99.90;;;;;;5072234;28;20214;-78
2023/10/26 10:40:55;;;;;;;19.00;17.00;;;21.60;99.90;;;;;;5071810;28;20488;-78
2023/10/26 10:43:40;;;;;;;20.30;18.20;;;21.60;99.90;;;;;;5070871;28;20451;-78
2023/10/26 10:46:20;;;;;;;19.50;17.40;;;20.80;99.90;;;;;;5071556;28;20197;-78
2023/10/26 10:48:57;;;;;;;20.97;18.00;;;20.30;99.90;;;;;;5072114;28;20435;-78
2023/10/26 10:51:37;;;;;;;18.30;16.10;;;19.60;99.90;;;;;;5049418;28;20439;-78
2023/10/26 10:54:09;;;;;;;22.30;16.70;;;19.10;99.90;;;;;;5064929;28;21017;-78
2023/10/26 10:56:42;;;;;;;23.93;16.50;;;18.50;99.90;;;;;;5046725;28;20823;-78
2023/10/26 10:59:25;;;;;;;20.83;17.13;;;18.40;99.90;;;;;;5069394;28;20431;-78
2023/10/26 11:02:07;;;;;;;20.90;17.33;;;18.30;99.90;;;;;;5068422;28;20431;-78
2023/10/26 11:04:33;;;;;;;18.13;15.47;;;18.10;99.90;;;;;;5071991;28;20438;-78
2023/10/26 11:06:58;;;;;;;19.50;15.63;;;17.60;99.90;;;;;;5051339;28;20447;-78
2023/10/26 11:09:31;;;;;;;19.10;15.90;;;17.20;99.90;;;;;;5069486;28;20196;-78
2023/10/26 11:12:08;;;;;;;15.57;13.30;;;17.00;1.00;;;;;;5069766;28;20189;-78
2023/10/26 11:14:33;;;;;;;17.10;13.50;;;16.90;99.90;;;;;;5046223;28;20479;-78
2023/10/26 11:17:00;;;;;;;17.07;15.13;;;16.70;1.00;;;;;;5064335;28;20522;-79
2023/10/26 11:19:25;;;;;;;18.83;16.77;;;16.60;1.00;;;;;;5072262;28;20173;-77
2023/10/26 11:21:55;;;;;;;18.50;14.63;;;16.40;1.00;;;;;;5070321;28;20442;-77
2023/10/26 11:24:29;;;;;;;20.67;14.93;;;16.30;1.00;;;;;;5070057;28;20253;-77
2023/10/26 11:27:16;;;;;;;19.77;15.57;;;16.40;1.00;;;;;;5068697;28;20454;-76
2023/10/26 11:29:42;;;;;;;22.53;16.00;;;16.20;7.20;;;;;;5048650;28;20460;-77
2023/10/26 11:32:18;;;;;;;18.70;14.53;;;16.00;1.00;;;;;;5051292;28;20538;-78
2023/10/26 11:35:07;;;;;;;18.23;14.03;;;16.10;8.60;;;;;;5042569;28;20497;-77
2023/10/26 11:37:37;;;;;;;16.93;13.53;;;16.00;99.90;;;;;;5071566;28;20475;-78
2023/10/26 11:40:07;;;;;;;18.03;13.33;;;16.20;99.90;;;;;;5072527;28;20782;-77
2023/10/26 11:43:00;;;;;;;14.13;11.93;;;16.30;38.00;;;;;;5072330;28;20507;-78
2023/10/26 11:45:27;;;;;;;14.77;11.73;;;16.50;1.00;;;;;;5064635;28;20964;-78
2023/10/26 11:48:00;;;;;;;13.07;10.90;;;16.50;1.00;;;;;;5053744;28;20515;-78
2023/10/26 11:50:29;;;;;;;13.73;10.33;;;16.80;1.00;;;;;;5058874;28;20453;-78
2023/10/26 11:52:57;;;;;;;12.90;10.90;;;17.20;1.00;;;;;;5073651;28;20424;-78
2023/10/26 11:55:24;;;;;;;32.63;12.83;;;17.10;1.00;;;;;;5072871;28;20558;-78
2023/10/26 11:57:51;;;;;;;13.53;11.77;;;17.00;1.00;;;;;;5074910;28;20474;-78
2023/10/26 12:00:18;;;;;;;15.60;11.57;;;16.80;1.00;;;;;;5074688;28;20485;-79
2023/10/26 12:02:43;;;;;;;14.57;12.20;;;16.60;1.00;;;;;;5044823;28;21033;-76
2023/10/26 12:05:15;;;;;;;18.27;11.37;;;16.40;1.00;;;;;;5055408;28;20447;-79
2023/10/26 12:07:41;;;;;;;19.60;12.20;;;16.60;1.00;;;;;;5070324;28;20181;-78
2023/10/26 12:10:07;;;;;;;17.17;12.60;;;16.70;1.00;;;;;;5069771;28;20470;-78
2023/10/26 12:12:32;;;;;;;14.83;13.33;;;16.90;1.00;;;;;;5053015;28;20481;-78
2023/10/26 12:14:58;;;;;;;14.77;12.40;;;16.90;1.00;;;;;;5072873;28;20439;-78
2023/10/26 12:17:23;;;;;;;17.50;13.20;;;16.80;1.00;;;;;;5074781;28;20201;-78
2023/10/26 12:19:49;;;;;;;16.63;12.33;;;16.70;1.00;;;;;;5076829;28;20178;-78
2023/10/26 12:22:14;;;;;;;15.43;11.00;;;17.20;1.00;;;;;;5076826;28;20213;-78
2023/10/26 12:24:40;;;;;;;10.60;9.50;;;17.20;1.00;;;;;;5070527;28;20659;-78
2023/10/26 12:27:05;;;;;;;14.00;9.90;;;17.40;1.00;;;;;;5074594;28;20201;-78